Time;durP1;ratioP1;P1;durP2;ratioP2;P2;SDS_P1;SDS_P2;PMS_P1;PMS_P2;Temp;Humidity;BMP_temperature;BMP_pressure;BME280_temperature;BME280_humidity;BME280_pressure;Samples;Min_cycle;Max_cycle;Signal;HPM_P1;HPM_P2
2024/01/30 00:00:36;;;;;;;3.38;2.22;;;;;;;;;;5061953;28;20032;-75
2024/01/30 00:03:01;;;;;;;2.20;2.00;;;;;;;;;;5058516;28;20077;-75
2024/01/30 00:05:27;;;;;;;4.82;2.30;;;;;;;;;;5047363;28;20054;-76
2024/01/30 00:07:52;;;;;;;3.80;2.20;;;;;;;;;;5062775;28;20462;-76
2024/01/30 00:10:17;;;;;;;5.03;2.60;;;;;;;;;;5051129;28;20088;-75
2024/01/30 00:12:43;;;;;;;6.38;2.42;;;;;;;;;;5046090;28;20413;-76
2024/01/30 00:15:09;;;;;;;7.15;3.20;;;;;;;;;;5051347;28;20076;-75
2024/01/30 00:17:36;;;;;;;4.05;2.72;;;;;;;;;;5053262;28;20029;-76
2024/01/30 00:20:05;;;;;;;5.95;3.20;;;;;;;;;;5050948;28;20056;-76
2024/01/30 00:22:30;;;;;;;4.00;2.33;;;;;;;;;;5058235;28;20128;-76
2024/01/30 00:24:56;;;;;;;4.22;3.03;;;;;;;;;;5059389;28;20167;-76
2024/01/30 00:27:21;;;;;;;8.32;2.55;;;;;;;;;;5054192;28;20262;-75
2024/01/30 00:29:46;;;;;;;5.60;2.95;;;;;;;;;;5056265;28;20044;-75
2024/01/30 00:32:11;;;;;;;2.10;1.88;;;;;;;;;;5041983;28;20500;-76
2024/01/30 00:34:37;;;;;;;2.97;2.00;;;;;;;;;;5053245;28;20045;-75
2024/01/30 00:37:02;;;;;;;4.10;2.38;;;;;;;;;;5050948;28;20513;-75
2024/01/30 00:39:28;;;;;;;5.57;2.58;;;;;;;;;;5057353;28;20037;-76
2024/01/30 00:41:53;;;;;;;2.45;1.95;;;;;;;;;;5060028;28;20053;-76
2024/01/30 00:44:18;;;;;;;5.13;2.42;;;;;;;;;;5063905;28;20102;-76
2024/01/30 00:46:43;;;;;;;7.88;3.10;;;;;;;;;;5052227;28;20048;-76
2024/01/30 00:49:09;;;;;;;8.23;2.95;;;;;;;;;;5060415;28;20094;-76
2024/01/30 00:51:34;;;;;;;4.03;2.75;;;;;;;;;;5059981;28;20040;-76
2024/01/30 00:53:59;;;;;;;4.68;2.55;;;;;;;;;;5051873;28;20681;-76
2024/01/30 00:56:25;;;;;;;4.35;2.95;;;;;;;;;;5049140;28;20067;-76
2024/01/30 00:58:50;;;;;;;5.57;3.05;;;;;;;;;;5049447;28;20048;-75
2024/01/30 01:01:15;;;;;;;8.40;2.88;;;;;;;;;;5053728;28;20047;-75
2024/01/30 01:03:43;;;;;;;6.65;3.13;;;;;;;;;;5070912;28;20461;-75
2024/01/30 01:06:08;;;;;;;5.15;2.97;;;;;;;;;;5052964;28;20033;-75
2024/01/30 01:08:34;;;;;;;6.22;3.65;;;;;;;;;;5058054;28;20037;-76
2024/01/30 01:10:59;;;;;;;5.40;3.20;;;;;;;;;;5051434;28;20056;-75
2024/01/30 01:13:24;;;;;;;6.68;3.70;;;;;;;;;;5047424;28;20033;-76
2024/01/30 01:15:49;;;;;;;4.50;3.35;;;;;;;;;;5054591;28;20041;-76
2024/01/30 01:18:15;;;;;;;5.28;3.28;;;;;;;;;;5058252;28;20040;-75
2024/01/30 01:20:41;;;;;;;4.68;3.33;;;;;;;;;;5049421;28;20025;-76
2024/01/30 01:23:06;;;;;;;8.43;3.08;;;;;;;;;;5050206;28;20056;-76
2024/01/30 01:25:31;;;;;;;4.05;2.90;;;;;;;;;;5062060;28;20497;-75
2024/01/30 01:27:57;;;;;;;11.50;3.78;;;;;;;;;;5054858;28;20037;-76
2024/01/30 01:30:22;;;;;;;5.68;3.20;;;;;;;;;;5057789;28;20043;-76
2024/01/30 01:32:54;;;;;;;9.27;3.58;;;;;;;;;;5057952;28;20169;-75
2024/01/30 01:35:22;;;;;;;6.68;3.33;;;;;;;;;;5055109;28;20629;-76
2024/01/30 01:37:54;;;;;;;6.55;3.60;;;;;;;;;;5053610;28;20041;-76
2024/01/30 01:40:20;;;;;;;4.22;2.75;;;;;;;;;;5058340;28;20052;-76
2024/01/30 01:42:45;;;;;;;4.40;3.03;;;;;;;;;;5063396;28;20044;-76
2024/01/30 01:45:10;;;;;;;3.53;2.47;;;;;;;;;;5054624;28;20120;-76
2024/01/30 01:47:36;;;;;;;3.30;2.50;;;;;;;;;;5064664;28;20024;-75
2024/01/30 01:50:01;;;;;;;2.13;1.92;;;;;;;;;;5051365;28;20044;-76
2024/01/30 01:52:26;;;;;;;3.55;2.22;;;;;;;;;;5053105;28;21218;-75
2024/01/30 01:54:52;;;;;;;7.95;3.13;;;;;;;;;;5049892;28;20059;-75
2024/01/30 01:57:17;;;;;;;4.57;3.05;;;;;;;;;;5064122;28;20064;-75
2024/01/30 01:59:43;;;;;;;4.38;2.80;;;;;;;;;;5054166;28;20025;-75
2024/01/30 02:02:11;;;;;;;6.13;3.25;;;;;;;;;;5060771;28;20059;-75
2024/01/30 02:04:36;;;;;;;5.30;2.63;;;;;;;;;;5044650;28;20116;-75
2024/01/30 02:07:01;;;;;;;6.70;3.35;;;;;;;;;;5063925;28;20556;-75
2024/01/30 02:09:27;;;;;;;3.88;2.17;;;;;;;;;;5049111;28;20120;-75
2024/01/30 02:11:52;;;;;;;2.35;2.08;;;;;;;;;;5051742;28;20049;-75
2024/01/30 02:14:17;;;;;;;5.25;2.45;;;;;;;;;;5049680;28;20061;-75
2024/01/30 02:16:43;;;;;;;3.42;2.33;;;;;;;;;;5051212;28;20476;-75
2024/01/30 02:19:08;;;;;;;4.43;2.60;;;;;;;;;;5062959;28;20032;-76
2024/01/30 02:21:33;;;;;;;3.30;2.20;;;;;;;;;;5049183;28;20044;-75
2024/01/30 02:23:59;;;;;;;4.50;2.08;;;;;;;;;;5051510;28;20402;-75
2024/01/30 02:26:25;;;;;;;5.05;2.88;;;;;;;;;;5053200;28;20044;-75
2024/01/30 02:28:50;;;;;;;4.78;3.17;;;;;;;;;;5062671;28;20043;-75
2024/01/30 02:31:15;;;;;;;10.73;3.45;;;;;;;;;;5051927;28;20515;-75
2024/01/30 02:33:40;;;;;;;13.45;3.53;;;;;;;;;;5066615;28;20047;-75
2024/01/30 02:36:06;;;;;;;4.07;2.13;;;;;;;;;;5050544;28;20033;-75
2024/01/30 02:38:31;;;;;;;3.67;2.25;;;;;;;;;;5057497;28;20123;-75
2024/01/30 02:40:57;;;;;;;3.75;1.92;;;;;;;;;;5054289;28;20044;-75
2024/01/30 02:43:22;;;;;;;2.42;1.88;;;;;;;;;;5050686;28;20052;-75
2024/01/30 02:45:47;;;;;;;3.67;2.10;;;;;;;;;;5055557;28;20052;-75
2024/01/30 02:48:13;;;;;;;4.38;2.58;;;;;;;;;;5056990;28;20033;-75
2024/01/30 02:50:38;;;;;;;1.85;1.50;;;;;;;;;;5053032;28;20397;-75
2024/01/30 02:53:03;;;;;;;3.45;2.47;;;;;;;;;;5048571;28;20118;-75
2024/01/30 02:55:29;;;;;;;6.25;2.15;;;;;;;;;;5053468;28;20033;-75
2024/01/30 02:57:54;;;;;;;3.25;2.08;;;;;;;;;;5054774;28;20037;-75
2024/01/30 03:00:20;;;;;;;4.75;2.70;;;;;;;;;;5051458;28;20349;-75
2024/01/30 03:02:45;;;;;;;3.00;1.98;;;;;;;;;;5053146;28;20033;-75
2024/01/30 03:05:11;;;;;;;2.85;2.33;;;;;;;;;;5057015;28;20032;-75
2024/01/30 03:07:36;;;;;;;6.43;2.75;;;;;;;;;;5056921;28;20037;-75
2024/01/30 03:10:02;;;;;;;4.25;2.58;;;;;;;;;;5050502;28;20459;-75
2024/01/30 03:12:27;;;;;;;5.50;2.40;;;;;;;;;;5062445;28;20123;-75
2024/01/30 03:14:53;;;;;;;3.13;2.20;;;;;;;;;;5066440;28;20037;-75
2024/01/30 03:17:18;;;;;;;3.83;2.22;;;;;;;;;;5052289;28;20115;-75
2024/01/30 03:19:43;;;;;;;3.13;1.88;;;;;;;;;;5057987;28;20029;-75
2024/01/30 03:22:08;;;;;;;2.58;2.03;;;;;;;;;;5060564;28;20041;-75
2024/01/30 03:24:34;;;;;;;2.10;1.60;;;;;;;;;;5054606;28;20051;-75
2024/01/30 03:26:59;;;;;;;1.83;1.70;;;;;;;;;;5055852;28;20064;-75
2024/01/30 03:29:24;;;;;;;2.38;1.60;;;;;;;;;;5055296;28;20036;-75
2024/01/30 03:31:50;;;;;;;4.22;1.92;;;;;;;;;;5050952;28;20119;-75
2024/01/30 03:34:15;;;;;;;3.10;2.10;;;;;;;;;;5051971;28;20037;-75
2024/01/30 03:36:40;;;;;;;2.08;1.80;;;;;;;;;;5057256;28;20493;-75
2024/01/30 03:39:06;;;;;;;4.55;2.17;;;;;;;;;;5058734;28;20147;-75
2024/01/30 03:41:31;;;;;;;5.32;2.28;;;;;;;;;;5066888;28;20385;-75
2024/01/30 03:43:56;;;;;;;4.18;2.10;;;;;;;;;;5063413;28;20110;-75
2024/01/30 03:46:23;;;;;;;2.33;1.75;;;;;;;;;;5054811;28;20127;-75
2024/01/30 03:48:49;;;;;;;4.78;1.90;;;;;;;;;;5056003;28;20123;-75
2024/01/30 03:51:15;;;;;;;5.93;2.70;;;;;;;;;;5067698;28;20033;-75
2024/01/30 03:53:41;;;;;;;6.28;2.45;;;;;;;;;;5060676;28;20029;-74
2024/01/30 03:56:07;;;;;;;4.00;2.13;;;;;;;;;;5058594;28;20072;-74
2024/01/30 03:58:32;;;;;;;5.18;2.22;;;;;;;;;;5056506;28;20064;-74
2024/01/30 04:00:58;;;;;;;3.67;2.05;;;;;;;;;;5061982;28;20096;-73
2024/01/30 04:03:23;;;;;;;2.83;2.00;;;;;;;;;;5056327;28;20037;-75
2024/01/30 04:05:48;;;;;;;4.32;2.22;;;;;;;;;;5058808;28;20036;-75
2024/01/30 04:08:14;;;;;;;9.15;2.92;;;;;;;;;;5060412;28;20585;-75
2024/01/30 04:10:40;;;;;;;4.50;2.25;;;;;;;;;;5032540;28;20037;-76
2024/01/30 04:13:05;;;;;;;5.10;1.92;;;;;;;;;;5050820;28;20044;-75
2024/01/30 04:15:31;;;;;;;3.35;2.20;;;;;;;;;;5054619;28;20497;-76
2024/01/30 04:17:59;;;;;;;5.18;2.40;;;;;;;;;;5062292;28;20497;-75
2024/01/30 04:20:25;;;;;;;3.22;2.10;;;;;;;;;;5056648;28;20112;-75
2024/01/30 04:22:50;;;;;;;4.47;2.13;;;;;;;;;;5066121;28;20032;-75
2024/01/30 04:25:16;;;;;;;3.80;1.63;;;;;;;;;;5056114;28;20037;-73
2024/01/30 04:27:41;;;;;;;4.75;1.83;;;;;;;;;;5053780;28;20955;-76
2024/01/30 04:30:07;;;;;;;2.92;2.13;;;;;;;;;;5052593;28;20543;-75
2024/01/30 04:32:33;;;;;;;3.92;2.08;;;;;;;;;;5059764;28;20501;-76
2024/01/30 04:34:58;;;;;;;2.15;1.50;;;;;;;;;;5060884;28;20897;-75
2024/01/30 04:37:24;;;;;;;2.50;1.73;;;;;;;;;;5054405;28;20037;-75
2024/01/30 04:39:50;;;;;;;3.45;2.20;;;;;;;;;;5059387;28;20587;-75
2024/01/30 04:42:16;;;;;;;1.80;1.50;;;;;;;;;;5051047;28;20037;-75
2024/01/30 04:44:41;;;;;;;2.53;1.52;;;;;;;;;;5056834;28;20037;-75
2024/01/30 04:47:08;;;;;;;2.55;1.90;;;;;;;;;;5050986;28;20033;-75
2024/01/30 04:49:34;;;;;;;3.60;1.77;;;;;;;;;;5050763;28;20579;-75
2024/01/30 04:52:00;;;;;;;2.22;1.25;;;;;;;;;;5051544;28;20040;-75
2024/01/30 04:54:25;;;;;;;2.53;1.67;;;;;;;;;;5057859;28;20032;-75
2024/01/30 04:56:51;;;;;;;1.92;1.50;;;;;;;;;;5059592;28;20032;-75
2024/01/30 04:59:16;;;;;;;4.50;1.60;;;;;;;;;;5050871;28;20036;-76
2024/01/30 05:01:41;;;;;;;2.90;1.80;;;;;;;;;;5061681;28;20517;-76
2024/01/30 05:04:10;;;;;;;1.70;1.60;;;;;;;;;;5050510;28;20083;-76
2024/01/30 05:06:35;;;;;;;2.95;1.42;;;;;;;;;;5052419;28;20498;-74
2024/01/30 05:09:00;;;;;;;5.63;2.05;;;;;;;;;;5059212;28;20108;-74
2024/01/30 05:11:26;;;;;;;1.88;1.40;;;;;;;;;;5058623;28;20037;-74
2024/01/30 05:13:51;;;;;;;2.05;1.85;;;;;;;;;;5051381;28;20036;-74
2024/01/30 05:16:16;;;;;;;1.92;1.52;;;;;;;;;;5049919;28;20060;-76
2024/01/30 05:18:41;;;;;;;1.95;1.48;;;;;;;;;;5056682;28;20741;-76
2024/01/30 05:21:07;;;;;;;2.25;1.63;;;;;;;;;;5051981;28;20020;-76
2024/01/30 05:23:32;;;;;;;2.33;1.63;;;;;;;;;;5053158;28;20037;-75
2024/01/30 05:26:00;;;;;;;2.78;1.83;;;;;;;;;;5050511;28;20037;-75
2024/01/30 05:28:26;;;;;;;2.70;1.65;;;;;;;;;;5058088;28;20033;-76
2024/01/30 05:30:51;;;;;;;3.28;1.60;;;;;;;;;;5059232;28;20649;-76
2024/01/30 05:33:16;;;;;;;1.75;1.27;;;;;;;;;;5061349;28;20035;-76
2024/01/30 05:35:41;;;;;;;4.82;1.60;;;;;;;;;;5056955;28;20060;-75
2024/01/30 05:38:07;;;;;;;1.45;1.35;;;;;;;;;;5058275;28;20036;-75
2024/01/30 05:40:32;;;;;;;1.88;1.55;;;;;;;;;;5050156;28;20037;-75
2024/01/30 05:43:02;;;;;;;2.78;2.03;;;;;;;;;;5065531;28;20719;-75
2024/01/30 05:45:27;;;;;;;4.72;2.47;;;;;;;;;;5061104;28;20151;-75
2024/01/30 05:47:53;;;;;;;11.05;4.93;;;;;;;;;;5066955;28;20385;-75
2024/01/30 05:50:19;;;;;;;8.20;4.10;;;;;;;;;;5055550;28;20040;-75
2024/01/30 05:52:45;;;;;;;6.30;3.47;;;;;;;;;;5052931;28;20043;-75
2024/01/30 05:55:12;;;;;;;15.88;4.65;;;;;;;;;;5059138;28;20119;-75
2024/01/30 05:57:37;;;;;;;11.02;4.22;;;;;;;;;;5049365;28;20044;-75
2024/01/30 06:00:05;;;;;;;7.10;3.35;;;;;;;;;;5054941;28;20037;-75
2024/01/30 06:02:30;;;;;;;7.30;3.33;;;;;;;;;;5053041;28;20457;-75
2024/01/30 06:04:56;;;;;;;4.88;2.30;;;;;;;;;;5049204;28;20056;-75
2024/01/30 06:07:22;;;;;;;5.63;2.88;;;;;;;;;;5050860;28;20089;-75
2024/01/30 06:09:47;;;;;;;9.65;3.28;;;;;;;;;;5052852;28;20458;-76
2024/01/30 06:12:12;;;;;;;4.13;2.20;;;;;;;;;;5051662;28;20036;-75
2024/01/30 06:14:38;;;;;;;11.32;3.05;;;;;;;;;;5050557;28;20515;-75
2024/01/30 06:17:03;;;;;;;3.72;1.45;;;;;;;;;;5063197;28;20098;-74
2024/01/30 06:19:28;;;;;;;2.60;1.73;;;;;;;;;;5049190;28;20515;-75
2024/01/30 06:21:54;;;;;;;1.83;1.60;;;;;;;;;;5060507;28;20186;-74
2024/01/30 06:24:19;;;;;;;1.40;0.95;;;;;;;;;;5054173;28;20036;-74
2024/01/30 06:26:44;;;;;;;3.33;1.92;;;;;;;;;;5049635;28;20033;-74
2024/01/30 06:29:10;;;;;;;2.33;1.73;;;;;;;;;;5048942;28;20041;-76
2024/01/30 06:31:41;;;;;;;2.30;1.55;;;;;;;;;;5049140;28;20125;-75
2024/01/30 06:34:07;;;;;;;6.95;1.88;;;;;;;;;;5055250;28;20036;-75
2024/01/30 06:36:32;;;;;;;55.33;5.10;;;;;;;;;;5045785;28;20448;-75
2024/01/30 06:38:58;;;;;;;3.83;2.47;;;;;;;;;;5041205;28;20029;-75
2024/01/30 06:41:23;;;;;;;3.47;1.90;;;;;;;;;;5048888;28;20033;-75
2024/01/30 06:43:49;;;;;;;6.20;2.60;;;;;;;;;;5050732;28;20044;-75
2024/01/30 06:46:15;;;;;;;2.70;2.10;;;;;;;;;;5053137;28;20033;-75
2024/01/30 06:48:40;;;;;;;4.70;2.67;;;;;;;;;;5049012;28;20130;-75
2024/01/30 06:51:06;;;;;;;5.15;2.20;;;;;;;;;;5048752;28;20029;-75
2024/01/30 06:53:31;;;;;;;4.72;1.98;;;;;;;;;;5054903;28;20032;-75
2024/01/30 06:55:56;;;;;;;4.80;1.25;;;;;;;;;;5047421;28;20587;-75
2024/01/30 06:58:21;;;;;;;1.30;1.20;;;;;;;;;;5048719;28;20064;-75
2024/01/30 07:00:47;;;;;;;1.75;1.25;;;;;;;;;;5054408;28;20127;-75
2024/01/30 07:03:12;;;;;;;2.80;1.35;;;;;;;;;;5058053;28;20562;-75
2024/01/30 07:05:37;;;;;;;2.08;1.80;;;;;;;;;;5047065;28;20037;-75
2024/01/30 07:08:03;;;;;;;2.72;1.70;;;;;;;;;;5054815;28;20033;-75
2024/01/30 07:10:28;;;;;;;2.75;2.10;;;;;;;;;;5048763;28;20041;-75
2024/01/30 07:12:54;;;;;;;3.85;2.42;;;;;;;;;;5057081;28;20060;-75
2024/01/30 07:15:20;;;;;;;4.38;2.28;;;;;;;;;;5054604;28;20025;-75
2024/01/30 07:17:46;;;;;;;8.60;3.13;;;;;;;;;;5057614;28;20116;-75
2024/01/30 07:20:11;;;;;;;4.20;1.90;;;;;;;;;;5061874;28;20060;-75
2024/01/30 07:22:36;;;;;;;7.13;2.10;;;;;;;;;;5052626;28;20056;-75
2024/01/30 07:25:02;;;;;;;5.47;2.70;;;;;;;;;;5056788;28;20090;-75
2024/01/30 07:27:27;;;;;;;3.13;2.20;;;;;;;;;;5069043;28;20116;-75
2024/01/30 07:29:53;;;;;;;5.43;2.58;;;;;;;;;;5050767;28;20048;-75
2024/01/30 07:32:18;;;;;;;5.10;2.60;;;;;;;;;;5051711;28;20060;-75
2024/01/30 07:34:44;;;;;;;5.88;2.90;;;;;;;;;;5066425;28;20029;-75
2024/01/30 07:37:10;;;;;;;3.03;2.42;;;;;;;;;;5056226;28;20036;-75
2024/01/30 07:39:35;;;;;;;12.65;5.00;;;;;;;;;;5053892;28;20044;-75
2024/01/30 07:42:01;;;;;;;9.85;5.43;;;;;;;;;;5048204;28;20102;-75
2024/01/30 07:44:26;;;;;;;10.40;5.47;;;;;;;;;;5048567;28;20087;-75
2024/01/30 07:46:51;;;;;;;9.82;4.70;;;;;;;;;;5046749;28;20033;-75
2024/01/30 07:49:17;;;;;;;3.83;2.88;;;;;;;;;;5048431;28;20490;-75
2024/01/30 07:51:43;;;;;;;4.75;2.20;;;;;;;;;;5048681;28;20040;-75
2024/01/30 07:54:08;;;;;;;3.25;2.40;;;;;;;;;;5063632;28;20120;-75
2024/01/30 07:56:33;;;;;;;3.30;2.47;;;;;;;;;;5049460;28;20042;-75
2024/01/30 07:58:58;;;;;;;6.40;2.92;;;;;;;;;;5060720;28;20059;-75
2024/01/30 08:01:24;;;;;;;20.00;2.70;;;;;;;;;;5056214;28;20033;-75
2024/01/30 08:03:49;;;;;;;4.28;3.10;;;;;;;;;;5052035;28;20040;-75
2024/01/30 08:06:14;;;;;;;4.28;2.53;;;;;;;;;;5051768;28;20032;-75
2024/01/30 08:08:40;;;;;;;6.03;3.15;;;;;;;;;;5052480;28;20533;-75
2024/01/30 08:11:05;;;;;;;4.47;2.65;;;;;;;;;;5051883;28;20040;-75
2024/01/30 08:13:30;;;;;;;3.72;2.80;;;;;;;;;;5051699;28;20083;-75
2024/01/30 08:15:56;;;;;;;4.55;2.45;;;;;;;;;;5058442;28;20052;-75
2024/01/30 08:18:21;;;;;;;10.30;2.75;;;;;;;;;;5063482;28;20031;-75
2024/01/30 08:20:46;;;;;;;5.45;2.30;;;;;;;;;;5063408;28;20082;-75
2024/01/30 08:23:12;;;;;;;3.67;2.20;;;;;;;;;;5053830;28;20040;-75
2024/01/30 08:25:37;;;;;;;4.28;2.65;;;;;;;;;;5051522;28;20557;-76
2024/01/30 08:28:03;;;;;;;4.15;2.38;;;;;;;;;;5051558;28;20128;-75
2024/01/30 08:30:29;;;;;;;6.15;2.53;;;;;;;;;;5049519;28;20630;-76
2024/01/30 08:32:54;;;;;;;3.20;2.50;;;;;;;;;;5058550;28;20098;-75
2024/01/30 08:35:19;;;;;;;4.47;2.45;;;;;;;;;;5051088;28;20037;-75
2024/01/30 08:37:45;;;;;;;4.10;2.72;;;;;;;;;;5058024;28;20033;-76
2024/01/30 08:40:10;;;;;;;3.08;2.13;;;;;;;;;;5050479;28;20123;-75
2024/01/30 08:42:36;;;;;;;3.47;2.30;;;;;;;;;;5057829;28;20052;-75
2024/01/30 08:45:01;;;;;;;3.72;2.40;;;;;;;;;;5052178;28;20128;-75
2024/01/30 08:47:27;;;;;;;5.57;2.67;;;;;;;;;;5052321;28;20033;-75
2024/01/30 08:49:52;;;;;;;4.25;2.45;;;;;;;;;;5059442;28;20041;-76
2024/01/30 08:52:17;;;;;;;3.72;2.33;;;;;;;;;;5055168;28;20040;-74
2024/01/30 08:54:43;;;;;;;4.53;2.85;;;;;;;;;;5061363;28;20044;-75
2024/01/30 08:57:08;;;;;;;3.30;2.38;;;;;;;;;;5058869;28;20040;-74
2024/01/30 08:59:34;;;;;;;3.13;2.45;;;;;;;;;;5051071;28;20036;-75
2024/01/30 09:01:59;;;;;;;3.17;2.33;;;;;;;;;;5058492;28;20582;-75
2024/01/30 09:04:25;;;;;;;3.67;2.67;;;;;;;;;;5050530;28;20029;-75
2024/01/30 09:06:50;;;;;;;5.07;2.85;;;;;;;;;;5050226;28;20033;-75
2024/01/30 09:09:17;;;;;;;4.68;2.90;;;;;;;;;;5063308;28;20412;-75
2024/01/30 09:11:43;;;;;;;4.63;2.55;;;;;;;;;;5052133;28;20571;-76
2024/01/30 09:14:08;;;;;;;3.33;2.35;;;;;;;;;;5055793;28;20037;-75
2024/01/30 09:16:34;;;;;;;3.67;2.47;;;;;;;;;;5050495;28;20037;-75
2024/01/30 09:18:59;;;;;;;3.15;2.40;;;;;;;;;;5049171;28;20035;-75
2024/01/30 09:21:24;;;;;;;4.68;2.22;;;;;;;;;;5050405;28;20025;-75
2024/01/30 09:23:50;;;;;;;4.00;2.55;;;;;;;;;;5050915;28;20044;-75
2024/01/30 09:26:15;;;;;;;3.47;2.83;;;;;;;;;;5050114;28;20432;-73
2024/01/30 09:28:42;;;;;;;6.28;2.83;;;;;;;;;;5050245;28;20037;-75
2024/01/30 09:31:11;;;;;;;3.67;2.72;;;;;;;;;;5055950;28;20540;-74
2024/01/30 09:33:37;;;;;;;4.43;2.95;;;;;;;;;;5063383;28;20504;-76
2024/01/30 09:36:02;;;;;;;2.85;2.10;;;;;;;;;;5052370;28;20041;-74
2024/01/30 09:38:27;;;;;;;6.00;2.55;;;;;;;;;;5049571;28;20152;-74
2024/01/30 09:40:56;;;;;;;6.10;2.50;;;;;;;;;;5049950;28;20033;-75
2024/01/30 09:43:23;;;;;;;5.63;2.38;;;;;;;;;;5046115;28;20435;-75
2024/01/30 09:45:50;;;;;;;4.45;2.50;;;;;;;;;;5052367;28;20040;-76
2024/01/30 09:48:15;;;;;;;3.13;2.33;;;;;;;;;;5065271;28;20036;-74
2024/01/30 09:50:41;;;;;;;3.92;2.50;;;;;;;;;;5064501;28;20036;-74
2024/01/30 09:53:08;;;;;;;3.20;2.40;;;;;;;;;;5059309;28;20098;-76
2024/01/30 09:55:35;;;;;;;2.45;2.03;;;;;;;;;;5057328;28;20699;-74
2024/01/30 09:58:01;;;;;;;3.78;2.17;;;;;;;;;;5066434;28;20062;-74
2024/01/30 10:00:27;;;;;;;8.98;2.35;;;;;;;;;;5056676;28;20056;-74
2024/01/30 10:02:52;;;;;;;3.08;2.22;;;;;;;;;;5049896;28;20047;-75
2024/01/30 10:05:19;;;;;;;5.38;2.50;;;;;;;;;;5057950;28;20041;-74
2024/01/30 10:07:55;;;;;;;4.80;2.88;;;;;;;;;;5049521;28;20075;-74
2024/01/30 10:10:24;;;;;;;7.80;3.88;;;;;;;;;;5065733;28;20040;-75
2024/01/30 10:12:50;;;;;;;6.38;3.65;;;;;;;;;;5064610;28;20060;-75
2024/01/30 10:15:15;;;;;;;12.32;6.10;;;;;;;;;;5050152;28;20060;-74
2024/01/30 10:17:40;;;;;;;10.88;7.00;;;;;;;;;;5049849;28;20083;-75
2024/01/30 10:20:07;;;;;;;8.07;5.53;;;;;;;;;;5054433;28;20040;-75
2024/01/30 10:22:33;;;;;;;12.15;5.80;;;;;;;;;;5057495;28;20064;-75
2024/01/30 10:24:59;;;;;;;11.95;7.57;;;;;;;;;;5057589;28;20133;-75
2024/01/30 10:27:29;;;;;;;16.75;10.40;;;;;;;;;;5049745;28;20029;-74
2024/01/30 10:29:55;;;;;;;24.13;14.63;;;;;;;;;;5050223;28;20037;-74
2024/01/30 10:32:20;;;;;;;25.88;13.75;;;;;;;;;;5068854;28;20033;-75
2024/01/30 10:34:46;;;;;;;22.77;12.38;;;;;;;;;;5054221;28;20037;-75
2024/01/30 10:37:17;;;;;;;16.38;9.45;;;;;;;;;;5047927;28;20115;-75
2024/01/30 10:39:44;;;;;;;13.65;7.20;;;;;;;;;;5049320;28;20056;-75
2024/01/30 10:42:14;;;;;;;6.82;2.67;;;;;;;;;;5049083;28;20120;-75
2024/01/30 10:45:03;;;;;;;5.00;2.90;;;;;;;;;;5049702;28;20069;-75
2024/01/30 10:47:29;;;;;;;3.15;2.40;;;;;;;;;;5041039;28;20037;-75
2024/01/30 10:49:55;;;;;;;2.85;2.10;;;;;;;;;;5049081;28;20045;-75
2024/01/30 10:52:23;;;;;;;3.78;2.00;;;;;;;;;;5049268;28;20029;-75
2024/01/30 10:54:49;;;;;;;2.60;1.67;;;;;;;;;;5049974;28;20037;-75
2024/01/30 10:57:16;;;;;;;2.50;1.77;;;;;;;;;;5049147;28;20134;-75
2024/01/30 10:59:42;;;;;;;1.95;1.40;;;;;;;;;;5049478;28;20017;-75
2024/01/30 11:02:09;;;;;;;2.50;1.63;;;;;;;;;;5048949;28;20029;-75
2024/01/30 11:04:38;;;;;;;3.45;1.98;;;;;;;;;;5060767;28;20055;-75
2024/01/30 11:07:17;;;;;;;2.65;1.70;;;;;;;;;;5059069;28;20041;-75
2024/01/30 11:10:14;;;;;;;7.70;2.00;;;;;;;;;;5048683;28;20509;-75
2024/01/30 11:12:42;;;;;;;5.15;2.00;;;;;;;;;;5043262;28;20120;-75
2024/01/30 11:15:12;;;;;;;4.15;1.77;;;;;;;;;;5049027;28;20041;-75
2024/01/30 11:17:50;;;;;;;4.75;2.05;;;;;;;;;;5063494;28;20568;-75
2024/01/30 11:20:18;;;;;;;3.70;1.92;;;;;;;;;;5057124;28;20505;-75
2024/01/30 11:22:45;;;;;;;1.40;1.30;;;;;;;;;;5061207;28;20064;-75
2024/01/30 11:25:15;;;;;;;1.00;1.00;;;;;;;;;;5047404;28;20464;-75
2024/01/30 11:27:41;;;;;;;1.08;1.08;;;;;;;;;;5048361;28;20044;-75
2024/01/30 11:30:08;;;;;;;0.98;0.98;;;;;;;;;;5057070;28;20041;-75
2024/01/30 11:32:33;;;;;;;2.75;1.20;;;;;;;;;;5061375;28;20043;-75
2024/01/30 11:34:59;;;;;;;1.20;1.10;;;;;;;;;;5052484;28;20044;-75
2024/01/30 11:37:26;;;;;;;1.23;1.13;;;;;;;;;;5052616;28;20060;-76
2024/01/30 11:39:53;;;;;;;1.05;0.93;;;;;;;;;;5052598;28;20044;-75
2024/01/30 11:42:19;;;;;;;1.63;1.40;;;;;;;;;;5054416;28;20051;-75
2024/01/30 11:44:48;;;;;;;1.63;1.17;;;;;;;;;;5059036;28;20025;-75
2024/01/30 11:47:14;;;;;;;5.45;1.42;;;;;;;;;;5052296;28;20086;-75
2024/01/30 11:49:40;;;;;;;1.25;1.17;;;;;;;;;;5052424;28;20049;-75
2024/01/30 11:52:05;;;;;;;1.95;1.10;;;;;;;;;;5053337;28;20044;-75
2024/01/30 11:54:31;;;;;;;2.13;1.52;;;;;;;;;;5052601;28;20029;-75
2024/01/30 11:56:56;;;;;;;1.30;1.20;;;;;;;;;;5061056;28;20029;-75
2024/01/30 11:59:22;;;;;;;1.70;1.15;;;;;;;;;;5039384;28;20040;-75
2024/01/30 12:01:47;;;;;;;1.55;1.40;;;;;;;;;;5058116;28;20166;-75
2024/01/30 12:04:13;;;;;;;1.25;1.15;;;;;;;;;;5061985;28;20110;-75
2024/01/30 12:06:39;;;;;;;1.85;1.20;;;;;;;;;;5064914;28;20040;-75
2024/01/30 12:09:04;;;;;;;1.73;1.25;;;;;;;;;;5072054;28;20077;-75
2024/01/30 12:11:30;;;;;;;1.50;1.40;;;;;;;;;;5072571;28;20043;-75
2024/01/30 12:13:56;;;;;;;1.70;1.15;;;;;;;;;;5063959;28;20347;-75
2024/01/30 12:16:22;;;;;;;2.83;1.77;;;;;;;;;;5051898;28;20537;-75
2024/01/30 12:18:48;;;;;;;1.75;1.65;;;;;;;;;;5051640;28;20033;-75
2024/01/30 12:21:16;;;;;;;1.20;1.05;;;;;;;;;;5051738;28;20116;-75
2024/01/30 12:23:42;;;;;;;1.40;1.25;;;;;;;;;;5051313;28;20029;-75
2024/01/30 12:26:07;;;;;;;2.70;1.25;;;;;;;;;;5051798;28;20040;-75
2024/01/30 12:28:35;;;;;;;1.58;1.30;;;;;;;;;;5051766;28;20408;-75
2024/01/30 12:31:04;;;;;;;2.03;1.63;;;;;;;;;;5053093;28;20156;-75
2024/01/30 12:33:30;;;;;;;1.50;1.40;;;;;;;;;;5051809;28;20055;-75
2024/01/30 12:36:01;;;;;;;1.23;1.13;;;;;;;;;;5052221;28;20116;-75
2024/01/30 12:38:27;;;;;;;2.40;1.58;;;;;;;;;;5051402;28;20502;-75
2024/01/30 12:40:56;;;;;;;3.47;1.40;;;;;;;;;;5059015;28;20037;-75
2024/01/30 12:43:22;;;;;;;3.47;2.10;;;;;;;;;;5069000;28;20047;-75
2024/01/30 12:45:47;;;;;;;1.88;1.33;;;;;;;;;;5049977;28;20041;-75
2024/01/30 12:48:13;;;;;;;4.05;1.25;;;;;;;;;;5051630;28;20041;-75
2024/01/30 12:50:38;;;;;;;1.48;1.38;;;;;;;;;;5067774;28;20044;-75
2024/01/30 12:53:04;;;;;;;3.33;1.42;;;;;;;;;;5055835;28;20029;-75
2024/01/30 12:55:30;;;;;;;1.48;1.33;;;;;;;;;;5051490;28;20536;-75
2024/01/30 12:57:55;;;;;;;1.58;1.33;;;;;;;;;;5051193;28;20033;-75
2024/01/30 13:00:22;;;;;;;1.52;1.40;;;;;;;;;;5070348;28;20021;-75
2024/01/30 13:02:47;;;;;;;2.95;1.40;;;;;;;;;;5066452;28;20120;-75
2024/01/30 13:05:13;;;;;;;2.08;1.38;;;;;;;;;;5050722;28;20115;-75
2024/01/30 13:07:38;;;;;;;3.13;1.23;;;;;;;;;;5049441;28;20041;-75
2024/01/30 13:10:03;;;;;;;4.47;1.40;;;;;;;;;;5050788;28;20048;-75
2024/01/30 13:12:30;;;;;;;1.63;1.30;;;;;;;;;;5050850;28;20422;-75
2024/01/30 13:14:55;;;;;;;1.85;1.30;;;;;;;;;;5051445;28;20044;-75
2024/01/30 13:17:21;;;;;;;1.80;1.70;;;;;;;;;;5069317;28;20508;-75
2024/01/30 13:19:46;;;;;;;3.15;2.15;;;;;;;;;;5055376;28;20078;-75
2024/01/30 13:22:11;;;;;;;3.70;2.00;;;;;;;;;;5070581;28;20029;-75
2024/01/30 13:24:37;;;;;;;2.80;1.98;;;;;;;;;;5070598;28;20043;-75
2024/01/30 13:27:05;;;;;;;3.42;2.13;;;;;;;;;;5070954;28;20028;-75
2024/01/30 13:29:30;;;;;;;7.40;2.10;;;;;;;;;;5065704;28;20128;-75
2024/01/30 13:31:56;;;;;;;2.15;1.95;;;;;;;;;;5032326;28;20184;-75
2024/01/30 13:34:21;;;;;;;9.05;2.05;;;;;;;;;;5050252;28;20056;-75
2024/01/30 13:36:48;;;;;;;2.80;2.22;;;;;;;;;;5050481;28;20086;-75
2024/01/30 13:39:14;;;;;;;3.15;2.45;;;;;;;;;;5050240;28;20024;-75
2024/01/30 13:41:41;;;;;;;4.57;2.30;;;;;;;;;;5050858;28;20524;-75
2024/01/30 13:44:06;;;;;;;3.38;2.63;;;;;;;;;;5050449;28;20041;-75
2024/01/30 13:46:32;;;;;;;4.53;2.13;;;;;;;;;;5050312;28;20033;-75
2024/01/30 13:48:57;;;;;;;3.80;2.40;;;;;;;;;;5050017;28;20037;-75
2024/01/30 13:51:22;;;;;;;1.98;1.75;;;;;;;;;;5050118;28;21256;-75
2024/01/30 13:53:50;;;;;;;2.63;2.00;;;;;;;;;;5054961;28;20028;-74
2024/01/30 13:56:15;;;;;;;2.90;1.40;;;;;;;;;;5053655;28;20475;-74
2024/01/30 13:58:40;;;;;;;2.63;1.83;;;;;;;;;;5050038;28;20037;-74
2024/01/30 14:01:06;;;;;;;2.55;1.65;;;;;;;;;;5049896;28;20036;-75
2024/01/30 14:03:32;;;;;;;2.97;1.98;;;;;;;;;;5054197;28;20051;-75
2024/01/30 14:05:57;;;;;;;3.40;1.75;;;;;;;;;;5069017;28;20075;-74
2024/01/30 14:08:26;;;;;;;2.45;1.60;;;;;;;;;;5069813;28;20028;-74
2024/01/30 14:10:51;;;;;;;2.00;1.65;;;;;;;;;;5069769;28;20032;-75
2024/01/30 14:13:17;;;;;;;2.03;1.80;;;;;;;;;;5069773;28;20067;-75
2024/01/30 14:15:42;;;;;;;3.53;2.15;;;;;;;;;;5058288;28;20111;-75
2024/01/30 14:18:08;;;;;;;2.35;1.60;;;;;;;;;;5049594;28;20428;-75
2024/01/30 14:20:34;;;;;;;2.05;1.85;;;;;;;;;;5050465;28;20029;-75
2024/01/30 14:22:59;;;;;;;2.47;1.67;;;;;;;;;;5049529;28;20096;-75
2024/01/30 14:25:25;;;;;;;3.70;1.83;;;;;;;;;;5060984;28;20037;-75
2024/01/30 14:27:50;;;;;;;2.15;1.70;;;;;;;;;;5049723;28;20401;-75
2024/01/30 14:30:16;;;;;;;2.25;1.60;;;;;;;;;;5049606;28;20525;-74
2024/01/30 14:32:44;;;;;;;6.97;4.93;;;;;;;;;;5050130;28;20140;-76
2024/01/30 14:35:10;;;;;;;7.22;4.85;;;;;;;;;;5058172;28;20064;-75